Time;durP1;ratioP1;P1;durP2;ratioP2;P2;SDS_P1;SDS_P2;PMS_P1;PMS_P2;Temp;Humidity;BMP_temperature;BMP_pressure;BME280_temperature;BME280_humidity;BME280_pressure;Samples;Min_cycle;Max_cycle;Signal;HPM_P1;HPM_P2
2022/04/09 00:00:00;;;;;;;6.38;2.17;;;;;;;;;;5047068;28;20031;-83
2022/04/09 00:02:26;;;;;;;4.15;1.95;;;;;;;;;;5042004;28;20136;-83
2022/04/09 00:04:52;;;;;;;3.47;1.60;;;;;;;;;;5038681;28;20057;-83
2022/04/09 00:07:18;;;;;;;4.35;1.88;;;;;;;;;;5039572;28;20883;-83
2022/04/09 00:09:44;;;;;;;6.15;2.08;;;;;;;;;;5045937;28;20037;-83
2022/04/09 00:12:11;;;;;;;4.22;1.65;;;;;;;;;;5057614;28;20025;-83
2022/04/09 00:14:37;;;;;;;5.35;1.85;;;;;;;;;;5040274;28;20022;-83
2022/04/09 00:17:03;;;;;;;3.92;1.55;;;;;;;;;;5058915;28;20044;-83
2022/04/09 00:19:29;;;;;;;4.55;1.90;;;;;;;;;;5055344;28;20075;-83
2022/04/09 00:21:57;;;;;;;4.38;1.63;;;;;;;;;;5059035;28;20029;-83
2022/04/09 00:24:23;;;;;;;4.75;2.03;;;;;;;;;;5043356;28;20468;-83
2022/04/09 00:26:49;;;;;;;3.63;1.70;;;;;;;;;;5055110;28;20025;-83
2022/04/09 00:29:15;;;;;;;4.75;1.90;;;;;;;;;;5057012;28;20025;-83
2022/04/09 00:31:41;;;;;;;4.82;1.80;;;;;;;;;;5036902;28;20021;-83
2022/04/09 00:34:07;;;;;;;3.75;2.15;;;;;;;;;;5040831;28;20116;-82
2022/04/09 00:36:33;;;;;;;4.80;1.92;;;;;;;;;;5053830;28;20432;-83
2022/04/09 00:38:59;;;;;;;3.80;1.95;;;;;;;;;;5054058;28;20032;-84
2022/04/09 00:41:25;;;;;;;4.05;1.92;;;;;;;;;;5044964;28;20040;-84
2022/04/09 00:43:51;;;;;;;4.55;1.90;;;;;;;;;;5037045;28;20022;-84
2022/04/09 00:46:17;;;;;;;3.78;1.70;;;;;;;;;;5050771;28;20029;-83
2022/04/09 00:48:43;;;;;;;4.47;2.13;;;;;;;;;;5059369;28;20029;-83
2022/04/09 00:51:10;;;;;;;4.63;2.33;;;;;;;;;;5050248;28;20029;-83
2022/04/09 00:53:39;;;;;;;4.88;2.28;;;;;;;;;;5048001;28;20519;-82
2022/04/09 00:56:19;;;;;;;4.47;2.35;;;;;;;;;;5046432;28;20097;-83
2022/04/09 00:58:51;;;;;;;4.97;2.38;;;;;;;;;;5040514;28;20074;-84
2022/04/09 01:01:18;;;;;;;4.43;2.40;;;;;;;;;;5041578;28;20033;-83
2022/04/09 01:03:45;;;;;;;5.07;2.30;;;;;;;;;;5037606;28;20391;-84
2022/04/09 01:06:12;;;;;;;4.35;2.10;;;;;;;;;;5048296;28;20096;-84
2022/04/09 01:08:38;;;;;;;4.18;2.10;;;;;;;;;;5054084;28;20514;-83
2022/04/09 01:11:04;;;;;;;4.47;2.03;;;;;;;;;;5050008;28;20040;-83
2022/04/09 01:13:30;;;;;;;4.18;2.17;;;;;;;;;;5047827;28;20017;-84
2022/04/09 01:15:56;;;;;;;4.38;2.15;;;;;;;;;;5043815;28;20041;-84
2022/04/09 01:18:23;;;;;;;3.72;1.88;;;;;;;;;;5018440;28;20032;-82
2022/04/09 01:20:49;;;;;;;3.92;1.70;;;;;;;;;;5051408;28;20028;-83
2022/04/09 01:23:15;;;;;;;3.72;1.92;;;;;;;;;;5037638;28;20024;-82
2022/04/09 01:25:41;;;;;;;3.17;1.52;;;;;;;;;;5042376;28;20079;-84
2022/04/09 01:28:08;;;;;;;4.18;1.40;;;;;;;;;;5054759;28;20410;-83
2022/04/09 01:30:34;;;;;;;3.17;1.48;;;;;;;;;;5038255;28;20040;-83
2022/04/09 01:33:00;;;;;;;3.45;1.38;;;;;;;;;;5033390;28;20022;-80
2022/04/09 01:35:26;;;;;;;3.15;1.10;;;;;;;;;;5024303;28;20026;-84
2022/04/09 01:37:52;;;;;;;4.03;1.40;;;;;;;;;;5061906;28;20021;-82
2022/04/09 01:40:18;;;;;;;2.53;1.10;;;;;;;;;;5063697;28;21687;-83
2022/04/09 01:42:44;;;;;;;4.28;1.40;;;;;;;;;;5055160;28;20092;-83
2022/04/09 01:45:10;;;;;;;3.42;1.48;;;;;;;;;;5039763;28;20033;-83
2022/04/09 01:47:41;;;;;;;3.40;1.27;;;;;;;;;;5038175;28;20083;-84
2022/04/09 01:50:08;;;;;;;3.47;1.50;;;;;;;;;;5041545;28;20082;-84
2022/04/09 01:52:34;;;;;;;3.72;1.38;;;;;;;;;;5040374;28;20040;-83
2022/04/09 01:55:00;;;;;;;3.55;1.45;;;;;;;;;;5030229;28;20022;-83
2022/04/09 01:57:26;;;;;;;3.75;1.40;;;;;;;;;;5054337;28;20510;-84
2022/04/09 01:59:52;;;;;;;4.93;2.25;;;;;;;;;;5025438;28;20061;-82
2022/04/09 02:02:18;;;;;;;4.35;1.60;;;;;;;;;;5048824;28;20394;-83
2022/04/09 02:04:44;;;;;;;3.15;1.38;;;;;;;;;;5037654;28;20033;-83
2022/04/09 02:07:10;;;;;;;3.40;1.55;;;;;;;;;;5056252;28;20068;-83
2022/04/09 02:09:36;;;;;;;6.57;2.10;;;;;;;;;;5057911;28;20036;-83
2022/04/09 02:12:02;;;;;;;4.03;1.75;;;;;;;;;;5051080;28;20025;-83
2022/04/09 02:14:28;;;;;;;4.88;2.20;;;;;;;;;;5043459;28;20025;-83
2022/04/09 02:16:54;;;;;;;3.55;1.70;;;;;;;;;;5042235;28;20026;-83
2022/04/09 02:19:20;;;;;;;4.13;1.80;;;;;;;;;;5040612;28;20048;-83
2022/04/09 02:21:46;;;;;;;3.70;1.35;;;;;;;;;;5039145;28;20025;-82
2022/04/09 02:24:12;;;;;;;3.47;1.70;;;;;;;;;;5045956;28;20053;-82
2022/04/09 02:26:38;;;;;;;3.33;1.40;;;;;;;;;;5056119;28;20037;-82
2022/04/09 02:29:04;;;;;;;4.95;1.85;;;;;;;;;;5063087;28;20063;-83
2022/04/09 02:31:30;;;;;;;3.78;1.90;;;;;;;;;;5064949;28;20055;-83
2022/04/09 02:33:56;;;;;;;4.40;1.90;;;;;;;;;;5047180;28;20029;-84
2022/04/09 02:36:24;;;;;;;4.15;1.55;;;;;;;;;;5036562;28;20034;-82
2022/04/09 02:38:50;;;;;;;4.93;1.98;;;;;;;;;;5037074;28;20112;-83
2022/04/09 02:41:16;;;;;;;4.30;1.77;;;;;;;;;;5035981;28;20492;-83
2022/04/09 02:43:43;;;;;;;4.68;1.65;;;;;;;;;;5030795;28;20069;-84
2022/04/09 02:46:09;;;;;;;4.68;1.67;;;;;;;;;;5051299;28;20029;-83
2022/04/09 02:48:35;;;;;;;4.68;1.90;;;;;;;;;;5027841;28;20038;-83
2022/04/09 02:51:01;;;;;;;5.30;1.85;;;;;;;;;;5016034;28;20026;-83
2022/04/09 02:53:27;;;;;;;4.60;1.90;;;;;;;;;;5042511;28;20036;-83
2022/04/09 02:55:54;;;;;;;4.10;1.73;;;;;;;;;;5044113;28;20025;-82
2022/04/09 02:58:20;;;;;;;4.63;1.80;;;;;;;;;;5035671;28;20030;-83
2022/04/09 03:00:46;;;;;;;3.97;1.67;;;;;;;;;;5028178;28;20108;-83
2022/04/09 03:03:12;;;;;;;4.05;1.88;;;;;;;;;;5038708;28;20068;-83
2022/04/09 03:05:38;;;;;;;4.90;2.15;;;;;;;;;;5038108;28;20073;-83
2022/04/09 03:08:04;;;;;;;5.60;1.80;;;;;;;;;;5036837;28;20046;-83
2022/04/09 03:10:30;;;;;;;4.30;1.73;;;;;;;;;;5042747;28;20028;-83
2022/04/09 03:12:58;;;;;;;5.00;1.60;;;;;;;;;;5038199;28;20376;-83
2022/04/09 03:15:24;;;;;;;4.72;1.80;;;;;;;;;;5047651;28;20522;-83
2022/04/09 03:17:50;;;;;;;4.68;2.30;;;;;;;;;;5055093;28;20030;-83
2022/04/09 03:20:16;;;;;;;4.78;2.00;;;;;;;;;;5043065;28;20024;-83
2022/04/09 03:22:45;;;;;;;3.90;1.83;;;;;;;;;;5055609;28;20029;-83
2022/04/09 03:25:11;;;;;;;5.60;2.00;;;;;;;;;;5044525;28;20036;-83
2022/04/09 03:27:38;;;;;;;3.55;1.70;;;;;;;;;;5044273;28;20096;-83
2022/04/09 03:30:04;;;;;;;5.85;2.20;;;;;;;;;;5040023;28;20048;-83
2022/04/09 03:32:31;;;;;;;3.88;2.22;;;;;;;;;;5033789;28;20029;-83
2022/04/09 03:34:57;;;;;;;4.05;1.90;;;;;;;;;;5040446;28;20104;-83
2022/04/09 03:37:23;;;;;;;5.10;2.10;;;;;;;;;;5056621;28;20028;-83
2022/04/09 03:39:49;;;;;;;4.90;1.90;;;;;;;;;;5038345;28;20022;-83
2022/04/09 03:42:16;;;;;;;5.25;2.20;;;;;;;;;;5039118;28;20033;-83
2022/04/09 03:44:42;;;;;;;5.68;2.30;;;;;;;;;;5038433;28;20553;-83
2022/04/09 03:47:08;;;;;;;5.32;2.58;;;;;;;;;;5038966;28;20472;-83
2022/04/09 03:49:35;;;;;;;5.57;2.13;;;;;;;;;;5033682;28;20040;-83
2022/04/09 03:52:01;;;;;;;5.78;2.65;;;;;;;;;;5026010;28;20026;-83
2022/04/09 03:54:27;;;;;;;5.13;2.42;;;;;;;;;;5042502;28;20025;-80
2022/04/09 03:56:53;;;;;;;6.30;2.88;;;;;;;;;;5039139;28;20103;-83
2022/04/09 03:59:19;;;;;;;4.80;2.80;;;;;;;;;;5038475;28;20033;-83
2022/04/09 04:01:49;;;;;;;5.72;2.80;;;;;;;;;;5036617;28;20021;-83
2022/04/09 04:04:15;;;;;;;5.53;2.80;;;;;;;;;;5033363;28;20104;-83
2022/04/09 04:06:41;;;;;;;5.32;3.03;;;;;;;;;;5027311;28;20479;-83
2022/04/09 04:09:07;;;;;;;6.43;3.58;;;;;;;;;;5020059;28;20079;-84
2022/04/09 04:11:34;;;;;;;5.00;2.90;;;;;;;;;;5032123;28;20093;-84
2022/04/09 04:14:00;;;;;;;6.03;3.40;;;;;;;;;;5046766;28;20052;-84
2022/04/09 04:16:26;;;;;;;6.50;2.53;;;;;;;;;;5035526;28;20025;-84
2022/04/09 04:18:52;;;;;;;5.40;2.30;;;;;;;;;;5046391;28;20071;-85
2022/04/09 04:21:19;;;;;;;4.20;1.42;;;;;;;;;;5026824;28;20470;-84
2022/04/09 04:23:45;;;;;;;3.60;1.35;;;;;;;;;;5034032;28;20438;-82
2022/04/09 04:26:11;;;;;;;3.17;1.23;;;;;;;;;;5047402;28;20120;-83
2022/04/09 04:28:37;;;;;;;3.10;1.08;;;;;;;;;;5038653;28;20084;-84
2022/04/09 04:31:04;;;;;;;4.68;1.45;;;;;;;;;;5037628;28;20034;-85
2022/04/09 04:33:32;;;;;;;4.55;1.23;;;;;;;;;;5030884;28;20053;-84
2022/04/09 04:35:58;;;;;;;2.95;1.17;;;;;;;;;;5031920;28;20022;-84
2022/04/09 04:38:24;;;;;;;3.38;1.40;;;;;;;;;;5032117;28;20491;-84
2022/04/09 04:40:51;;;;;;;6.75;4.72;;;;;;;;;;5038159;28;20095;-85
2022/04/09 04:43:17;;;;;;;6.65;4.65;;;;;;;;;;5052942;28;20022;-84
2022/04/09 04:45:43;;;;;;;5.95;3.63;;;;;;;;;;5047356;28;20448;-84
2022/04/09 04:48:11;;;;;;;8.60;5.57;;;;;;;;;;5055120;28;20049;-85
2022/04/09 04:50:40;;;;;;;5.47;2.75;;;;;;;;;;5036957;28;20081;-83
2022/04/09 04:53:06;;;;;;;6.65;4.00;;;;;;;;;;5037579;28;20018;-81
2022/04/09 04:55:32;;;;;;;6.57;3.78;;;;;;;;;;5046055;28;20005;-83
2022/04/09 04:57:58;;;;;;;6.55;3.40;;;;;;;;;;5051900;28;20023;-82
2022/04/09 05:00:24;;;;;;;6.72;3.90;;;;;;;;;;5036325;28;20034;-84
2022/04/09 05:02:54;;;;;;;5.55;2.78;;;;;;;;;;5046849;28;20049;-82
2022/04/09 05:05:20;;;;;;;4.95;2.50;;;;;;;;;;5052439;28;20010;-83
2022/04/09 05:07:47;;;;;;;8.90;5.90;;;;;;;;;;5036685;28;20045;-82
2022/04/09 05:10:18;;;;;;;5.50;2.35;;;;;;;;;;5044360;28;20012;-82
2022/04/09 05:12:45;;;;;;;5.47;2.47;;;;;;;;;;5034737;28;20106;-82
2022/04/09 05:15:12;;;;;;;5.78;3.67;;;;;;;;;;5056247;28;20353;-83
2022/04/09 05:17:38;;;;;;;7.88;5.18;;;;;;;;;;5045283;28;20085;-82
2022/04/09 05:20:05;;;;;;;6.38;2.35;;;;;;;;;;5046333;28;20030;-81
2022/04/09 05:22:31;;;;;;;3.35;1.48;;;;;;;;;;5048463;28;20026;-85
2022/04/09 05:24:58;;;;;;;5.40;2.63;;;;;;;;;;5039837;28;20010;-83
2022/04/09 05:27:24;;;;;;;4.70;2.13;;;;;;;;;;5046203;28;20033;-84
2022/04/09 05:29:56;;;;;;;3.90;1.75;;;;;;;;;;5051784;28;20009;-85
2022/04/09 05:32:22;;;;;;;4.13;1.90;;;;;;;;;;5033968;28;20022;-85
2022/04/09 05:34:49;;;;;;;3.80;2.03;;;;;;;;;;5028228;28;20037;-84
2022/04/09 05:37:16;;;;;;;4.22;1.92;;;;;;;;;;5027564;28;20050;-85
2022/04/09 05:39:47;;;;;;;3.90;1.63;;;;;;;;;;5026924;28;20104;-85
2022/04/09 05:42:13;;;;;;;3.00;1.13;;;;;;;;;;5024775;28;20032;-84
2022/04/09 05:44:39;;;;;;;3.20;1.20;;;;;;;;;;5023451;28;20053;-87
2022/04/09 05:47:05;;;;;;;3.45;1.10;;;;;;;;;;5018380;28;20037;-86
2022/04/09 05:49:31;;;;;;;2.28;0.90;;;;;;;;;;5021030;28;20025;-83
2022/04/09 05:51:57;;;;;;;1.42;0.70;;;;;;;;;;5016764;28;20026;-84
2022/04/09 05:57:27;;;;;;;1.98;0.82;;;;;;;;;;5029177;28;20041;-84
2022/04/09 05:59:53;;;;;;;2.45;1.10;;;;;;;;;;5030500;28;20400;-83
2022/04/09 06:02:19;;;;;;;2.97;1.10;;;;;;;;;;5029648;28;20552;-84
2022/04/09 06:04:45;;;;;;;1.90;0.60;;;;;;;;;;5038724;28;20472;-85
2022/04/09 06:07:13;;;;;;;1.08;0.70;;;;;;;;;;5038585;28;20049;-86
2022/04/09 06:09:41;;;;;;;1.52;0.80;;;;;;;;;;5035893;28;20511;-89
2022/04/09 06:12:08;;;;;;;1.83;0.70;;;;;;;;;;5018759;28;20030;-87
2022/04/09 06:14:34;;;;;;;1.98;1.00;;;;;;;;;;5021231;28;20499;-84
2022/04/09 06:17:00;;;;;;;2.60;0.80;;;;;;;;;;5028946;28;20480;-86
2022/04/09 06:19:31;;;;;;;1.50;0.70;;;;;;;;;;5035113;28;20026;-84
2022/04/09 06:21:57;;;;;;;1.45;0.63;;;;;;;;;;5043844;28;20028;-82
2022/04/09 06:24:23;;;;;;;1.35;0.68;;;;;;;;;;5032697;28;20377;-86
2022/04/09 06:26:49;;;;;;;2.47;0.90;;;;;;;;;;5030557;28;20093;-85
2022/04/09 06:29:15;;;;;;;2.30;0.80;;;;;;;;;;5020825;28;20037;-83
2022/04/09 06:31:41;;;;;;;2.42;1.00;;;;;;;;;;5022103;28;20026;-84
2022/04/09 06:34:08;;;;;;;2.60;1.25;;;;;;;;;;5024584;28;20421;-85
2022/04/09 06:36:33;;;;;;;3.22;1.33;;;;;;;;;;5037153;28;20022;-83
2022/04/09 06:39:00;;;;;;;2.95;1.38;;;;;;;;;;5034199;28;20037;-83
2022/04/09 06:41:28;;;;;;;3.40;1.70;;;;;;;;;;5025150;28;20092;-83
2022/04/09 06:43:55;;;;;;;4.72;2.13;;;;;;;;;;5018580;28;20034;-82
2022/04/09 06:46:21;;;;;;;3.63;1.70;;;;;;;;;;5017484;28;20037;-82
2022/04/09 06:48:47;;;;;;;3.42;1.77;;;;;;;;;;5031034;28;20387;-84
2022/04/09 06:51:13;;;;;;;4.68;1.80;;;;;;;;;;5035489;28;20075;-83
2022/04/09 06:53:39;;;;;;;3.83;1.90;;;;;;;;;;5038684;28;20091;-82
2022/04/09 06:56:06;;;;;;;4.97;2.10;;;;;;;;;;5041109;28;20285;-83
2022/04/09 06:58:32;;;;;;;4.38;2.22;;;;;;;;;;5030613;28;20022;-83
2022/04/09 07:00:58;;;;;;;4.45;1.90;;;;;;;;;;5026633;28;20034;-84
2022/04/09 07:03:24;;;;;;;5.10;2.20;;;;;;;;;;5021141;28;20124;-83
2022/04/09 07:05:50;;;;;;;5.28;2.38;;;;;;;;;;5023418;28;20097;-82
2022/04/09 07:08:17;;;;;;;5.88;3.28;;;;;;;;;;5025605;28;20052;-83
2022/04/09 07:10:43;;;;;;;5.15;2.92;;;;;;;;;;5035304;28;20022;-83
2022/04/09 07:13:09;;;;;;;6.03;3.58;;;;;;;;;;5022981;28;20049;-83
2022/04/09 07:15:35;;;;;;;6.50;3.40;;;;;;;;;;5019579;28;20022;-81
2022/04/09 07:18:01;;;;;;;7.25;4.50;;;;;;;;;;5018592;28;20492;-83
2022/04/09 07:20:29;;;;;;;7.15;4.68;;;;;;;;;;5019472;28;20119;-82
2022/04/09 07:22:55;;;;;;;6.95;4.05;;;;;;;;;;5026978;28;20034;-82
2022/04/09 07:25:21;;;;;;;7.90;4.40;;;;;;;;;;5037049;28;20026;-83
2022/04/09 07:27:48;;;;;;;6.55;3.47;;;;;;;;;;5030487;28;20033;-82
2022/04/09 07:30:19;;;;;;;6.28;3.80;;;;;;;;;;5035925;28;20037;-81
2022/04/09 07:32:45;;;;;;;7.30;4.22;;;;;;;;;;5036126;28;20810;-83
2022/04/09 07:35:11;;;;;;;8.95;4.18;;;;;;;;;;5020134;28;20437;-82
2022/04/09 07:37:45;;;;;;;6.45;3.40;;;;;;;;;;5033675;28;20060;-81
2022/04/09 07:40:12;;;;;;;7.07;3.65;;;;;;;;;;5032967;28;20026;-83
2022/04/09 07:42:38;;;;;;;6.43;3.85;;;;;;;;;;5030868;28;20086;-82
2022/04/09 07:45:05;;;;;;;6.60;3.83;;;;;;;;;;5029071;28;20507;-82
2022/04/09 07:47:31;;;;;;;6.40;3.53;;;;;;;;;;5026814;28;20021;-82
2022/04/09 07:49:57;;;;;;;5.15;2.90;;;;;;;;;;5037919;28;20034;-82
2022/04/09 07:52:23;;;;;;;6.40;3.20;;;;;;;;;;5017512;28;20033;-83
2022/04/09 07:54:50;;;;;;;5.22;2.88;;;;;;;;;;5048792;28;20124;-82
2022/04/09 07:57:16;;;;;;;5.45;3.15;;;;;;;;;;5039836;28;20358;-84
2022/04/09 07:59:42;;;;;;;5.68;2.78;;;;;;;;;;5052002;28;20025;-81
2022/04/09 08:02:08;;;;;;;5.50;2.95;;;;;;;;;;5038320;28;20183;-82
2022/04/09 08:04:34;;;;;;;5.85;3.13;;;;;;;;;;5050692;28;20029;-84
2022/04/09 08:07:00;;;;;;;5.68;2.90;;;;;;;;;;5047224;28;20045;-83
2022/04/09 08:09:26;;;;;;;6.47;3.05;;;;;;;;;;5038407;28;20026;-82
2022/04/09 08:11:53;;;;;;;5.60;3.40;;;;;;;;;;5047677;28;20032;-82
2022/04/09 08:14:19;;;;;;;5.90;3.70;;;;;;;;;;5035575;28;20431;-82
2022/04/09 08:16:46;;;;;;;7.70;4.15;;;;;;;;;;5053160;28;20048;-83
2022/04/09 08:19:12;;;;;;;6.68;3.22;;;;;;;;;;5056826;28;20028;-85
2022/04/09 08:21:38;;;;;;;7.55;3.72;;;;;;;;;;5055019;28;20434;-84
2022/04/09 08:24:04;;;;;;;7.05;4.32;;;;;;;;;;5038387;28;20030;-82
2022/04/09 08:26:30;;;;;;;7.38;4.35;;;;;;;;;;5036723;28;20036;-84
2022/04/09 08:28:56;;;;;;;7.85;4.97;;;;;;;;;;5037715;28;20374;-82
2022/04/09 08:31:23;;;;;;;9.02;5.40;;;;;;;;;;5044102;28;20363;-82
2022/04/09 08:33:49;;;;;;;8.45;5.05;;;;;;;;;;5040352;28;20610;-83
2022/04/09 08:36:15;;;;;;;8.10;5.07;;;;;;;;;;5035626;28;20025;-83
2022/04/09 08:38:41;;;;;;;9.95;5.25;;;;;;;;;;5026511;28;20026;-84
2022/04/09 08:41:07;;;;;;;8.57;5.30;;;;;;;;;;5044682;28;20034;-83
2022/04/09 08:43:34;;;;;;;11.10;5.95;;;;;;;;;;5027845;28;20029;-84
2022/04/09 08:46:02;;;;;;;9.35;6.40;;;;;;;;;;5035148;28;20513;-85
2022/04/09 08:48:28;;;;;;;12.73;6.82;;;;;;;;;;5033744;28;20028;-84
2022/04/09 08:50:55;;;;;;;10.55;6.55;;;;;;;;;;5035354;28;20341;-84
2022/04/09 08:53:21;;;;;;;10.02;7.05;;;;;;;;;;5031242;28;20022;-82
2022/04/09 08:55:48;;;;;;;10.45;6.53;;;;;;;;;;5028836;28;20025;-83
2022/04/09 08:58:14;;;;;;;10.07;6.38;;;;;;;;;;5030143;28;20023;-82
2022/04/09 09:00:42;;;;;;;9.52;6.35;;;;;;;;;;5018253;28;20472;-84
2022/04/09 09:03:10;;;;;;;9.27;6.47;;;;;;;;;;5039876;28;20128;-84
2022/04/09 09:05:40;;;;;;;10.23;6.95;;;;;;;;;;5057406;28;20121;-84
2022/04/09 09:08:07;;;;;;;9.18;5.82;;;;;;;;;;5043470;28;20057;-84
2022/04/09 09:10:34;;;;;;;10.90;6.75;;;;;;;;;;5049574;28;20032;-84
2022/04/09 09:13:05;;;;;;;9.80;6.00;;;;;;;;;;5045478;28;20028;-81
2022/04/09 09:15:31;;;;;;;9.77;6.53;;;;;;;;;;5036534;28;20097;-82
2022/04/09 09:17:58;;;;;;;9.88;6.80;;;;;;;;;;5036897;28;20025;-84
2022/04/09 09:20:24;;;;;;;10.40;6.47;;;;;;;;;;5037154;28;20037;-82
2022/04/09 09:22:51;;;;;;;11.02;6.80;;;;;;;;;;5038832;28;20029;-84
2022/04/09 09:25:17;;;;;;;10.95;6.78;;;;;;;;;;5039944;28;20036;-83
2022/04/09 09:27:43;;;;;;;10.55;7.32;;;;;;;;;;5039170;28;20036;-82
2022/04/09 09:30:11;;;;;;;10.07;6.70;;;;;;;;;;5037824;28;20021;-81
2022/04/09 09:32:41;;;;;;;9.38;6.30;;;;;;;;;;5028435;28;20258;-81
2022/04/09 09:35:09;;;;;;;9.90;6.57;;;;;;;;;;5029873;28;20022;-84
2022/04/09 09:37:35;;;;;;;10.57;7.45;;;;;;;;;;5027112;28;20388;-83
2022/04/09 09:40:01;;;;;;;9.65;6.30;;;;;;;;;;5029535;28;20032;-83
2022/04/09 09:42:27;;;;;;;8.45;6.28;;;;;;;;;;5027287;28;20044;-84
2022/04/09 09:44:54;;;;;;;9.13;5.95;;;;;;;;;;5043611;28;20044;-84
2022/04/09 09:47:20;;;;;;;9.00;6.10;;;;;;;;;;5035084;28;20244;-84
2022/04/09 09:49:55;;;;;;;11.43;5.82;;;;;;;;;;5036769;28;20021;-83
2022/04/09 09:52:34;;;;;;;9.38;6.20;;;;;;;;;;5025644;28;20443;-81
2022/04/09 09:55:10;;;;;;;11.25;6.97;;;;;;;;;;5036496;28;20466;-83
2022/04/09 09:57:38;;;;;;;10.45;6.95;;;;;;;;;;5040027;28;20060;-84
2022/04/09 10:00:06;;;;;;;9.48;6.28;;;;;;;;;;5042627;28;20025;-82
2022/04/09 10:02:32;;;;;;;8.50;5.30;;;;;;;;;;5045382;28;20029;-81
2022/04/09 10:04:58;;;;;;;7.40;4.57;;;;;;;;;;5061824;28;20057;-84
2022/04/09 10:07:25;;;;;;;7.45;4.80;;;;;;;;;;5055558;28;20041;-82
2022/04/09 10:09:53;;;;;;;9.32;5.38;;;;;;;;;;5045123;28;20025;-81
2022/04/09 10:12:26;;;;;;;10.60;6.20;;;;;;;;;;5035642;28;20104;-82
2022/04/09 10:14:52;;;;;;;;;;;;;;;;;;5041408;28;20040;-83
2022/04/09 10:17:19;;;;;;;8.30;5.53;;;;;;;;;;5020632;28;19992;-84
2022/04/09 10:19:49;;;;;;;9.35;5.53;;;;;;;;;;5029376;28;20105;-83
2022/04/09 10:22:16;;;;;;;8.02;5.75;;;;;;;;;;5029350;28;20029;-82
2022/04/09 10:24:42;;;;;;;10.68;6.47;;;;;;;;;;5048458;28;20021;-83
2022/04/09 10:27:08;;;;;;;8.50;5.38;;;;;;;;;;5037868;28;20030;-83
2022/04/09 10:29:50;;;;;;;8.15;4.97;;;;;;;;;;5055403;28;20033;-82
2022/04/09 10:32:34;;;;;;;8.07;5.15;;;;;;;;;;5046913;28;20027;-82
2022/04/09 10:35:00;;;;;;;8.70;5.75;;;;;;;;;;5039580;28;20053;-83
2022/04/09 10:37:26;;;;;;;8.45;5.72;;;;;;;;;;5042980;28;20056;-81
2022/04/09 10:39:55;;;;;;;8.05;5.40;;;;;;;;;;5056713;28;20052;-81
2022/04/09 10:42:40;;;;;;;10.68;6.20;;;;;;;;;;5063387;28;20031;-83
2022/04/09 10:45:06;;;;;;;9.23;6.00;;;;;;;;;;5061324;28;20014;-80
2022/04/09 10:47:52;;;;;;;10.02;6.07;;;;;;;;;;5048635;28;20037;-81
2022/04/09 10:50:19;;;;;;;8.65;5.93;;;;;;;;;;5063956;28;20079;-82
2022/04/09 10:52:47;;;;;;;9.05;6.10;;;;;;;;;;5046282;28;20036;-82
2022/04/09 10:55:15;;;;;;;9.65;6.10;;;;;;;;;;5046132;28;20036;-83
2022/04/09 10:57:45;;;;;;;12.93;8.23;;;;;;;;;;5026182;28;20553;-83
2022/04/09 11:00:23;;;;;;;13.48;7.90;;;;;;;;;;5020320;28;20037;-82
2022/04/09 11:03:08;;;;;;;9.43;6.20;;;;;;;;;;5047743;28;20060;-82
2022/04/09 11:05:34;;;;;;;10.45;6.53;;;;;;;;;;5042751;28;20121;-84
2022/04/09 11:08:07;;;;;;;10.60;7.00;;;;;;;;;;5038399;28;20045;-83
2022/04/09 11:10:34;;;;;;;10.52;6.55;;;;;;;;;;5038558;28;20021;-85
2022/04/09 11:13:00;;;;;;;9.90;5.55;;;;;;;;;;5038576;28;20116;-84
2022/04/09 11:15:28;;;;;;;7.53;5.25;;;;;;;;;;5042833;28;20053;-83
2022/04/09 11:18:02;;;;;;;9.43;5.90;;;;;;;;;;5041963;28;20052;-84
2022/04/09 11:20:33;;;;;;;8.10;4.97;;;;;;;;;;5038926;28;20504;-83
2022/04/09 11:23:07;;;;;;;8.20;5.38;;;;;;;;;;5053590;28;20048;-80
2022/04/09 11:25:33;;;;;;;8.00;5.00;;;;;;;;;;5056693;28;20403;-81
2022/04/09 11:28:05;;;;;;;8.40;5.07;;;;;;;;;;5056197;28;20025;-80
2022/04/09 11:30:32;;;;;;;7.10;4.53;;;;;;;;;;5070549;28;20017;-80
2022/04/09 11:32:58;;;;;;;9.18;4.72;;;;;;;;;;5056148;28;20052;-84
2022/04/09 11:35:27;;;;;;;8.63;5.03;;;;;;;;;;5040435;28;20033;-83
2022/04/09 11:37:53;;;;;;;8.18;4.88;;;;;;;;;;5040287;28;20458;-83
2022/04/09 11:40:21;;;;;;;7.75;4.38;;;;;;;;;;5041359;28;20028;-83
2022/04/09 11:42:50;;;;;;;7.07;4.25;;;;;;;;;;5048545;28;20619;-83
2022/04/09 11:45:17;;;;;;;7.28;4.03;;;;;;;;;;5035814;28;20029;-83
2022/04/09 11:47:43;;;;;;;6.90;4.85;;;;;;;;;;5035106;28;20395;-84
2022/04/09 11:50:12;;;;;;;6.80;4.68;;;;;;;;;;5040154;28;20108;-81
2022/04/09 11:52:38;;;;;;;7.30;4.53;;;;;;;;;;5048181;28;20093;-82
2022/04/09 11:55:08;;;;;;;6.55;4.10;;;;;;;;;;5040716;28;20050;-83
2022/04/09 11:57:34;;;;;;;7.22;4.35;;;;;;;;;;5057318;28;20028;-82
2022/04/09 12:00:01;;;;;;;6.82;3.70;;;;;;;;;;5047969;28;20435;-83
2022/04/09 12:02:27;;;;;;;6.88;4.07;;;;;;;;;;5039643;28;20032;-82
2022/04/09 12:04:55;;;;;;;6.55;4.10;;;;;;;;;;5039201;28;20118;-83
2022/04/09 12:07:21;;;;;;;7.50;4.38;;;;;;;;;;5018636;28;20046;-83
2022/04/09 12:09:47;;;;;;;6.68;3.55;;;;;;;;;;5018213;28;20172;-82
2022/04/09 12:12:13;;;;;;;7.45;3.70;;;;;;;;;;5054767;28;20025;-82
2022/04/09 12:14:40;;;;;;;6.45;3.67;;;;;;;;;;5059529;28;20494;-83
2022/04/09 12:17:15;;;;;;;7.15;3.33;;;;;;;;;;5039684;28;20026;-83
2022/04/09 12:19:44;;;;;;;5.65;2.97;;;;;;;;;;5037205;28;20510;-82
2022/04/09 12:22:24;;;;;;;5.32;3.15;;;;;;;;;;5056397;28;20033;-83
2022/04/09 12:24:57;;;;;;;6.47;3.20;;;;;;;;;;5057315;28;20021;-82
2022/04/09 12:27:44;;;;;;;6.45;3.15;;;;;;;;;;5037177;28;20024;-84
2022/04/09 12:30:11;;;;;;;5.22;2.90;;;;;;;;;;5039293;28;20021;-83
2022/04/09 12:32:37;;;;;;;6.43;3.40;;;;;;;;;;5057957;28;20017;-82
2022/04/09 12:35:06;;;;;;;5.40;3.08;;;;;;;;;;5058552;28;20428;-82
2022/04/09 12:37:42;;;;;;;5.65;3.05;;;;;;;;;;5038966;28;20026;-82
2022/04/09 12:40:18;;;;;;;5.60;2.80;;;;;;;;;;5038274;28;20083;-82
2022/04/09 12:42:46;;;;;;;5.43;2.85;;;;;;;;;;5060104;28;20055;-82
2022/04/09 12:45:16;;;;;;;5.75;2.65;;;;;;;;;;5060038;28;20109;-82
2022/04/09 12:47:42;;;;;;;4.40;2.35;;;;;;;;;;5036432;28;20033;-83
2022/04/09 12:50:22;;;;;;;4.68;2.20;;;;;;;;;;5035856;28;20056;-79
2022/04/09 12:52:49;;;;;;;4.72;2.60;;;;;;;;;;5038925;28;20022;-82
2022/04/09 12:55:15;;;;;;;4.55;2.20;;;;;;;;;;5039061;28;20120;-82
2022/04/09 12:57:41;;;;;;;5.68;2.40;;;;;;;;;;5035732;28;20063;-81
2022/04/09 13:00:08;;;;;;;4.20;2.28;;;;;;;;;;5047305;28;20116;-82
2022/04/09 13:02:36;;;;;;;4.60;2.10;;;;;;;;;;5057548;28;20032;-82
2022/04/09 13:05:02;;;;;;;4.00;2.00;;;;;;;;;;5054154;28;20123;-81
2022/04/09 13:07:28;;;;;;;5.03;2.28;;;;;;;;;;5039461;28;20048;-79
2022/04/09 13:09:54;;;;;;;5.25;2.10;;;;;;;;;;5036179;28;20029;-81
2022/04/09 13:12:20;;;;;;;4.40;2.00;;;;;;;;;;5035653;28;20051;-82
2022/04/09 13:14:46;;;;;;;5.93;2.58;;;;;;;;;;5037685;28;20495;-82
2022/04/09 13:17:12;;;;;;;5.15;2.38;;;;;;;;;;5038285;28;20045;-80
2022/04/09 13:19:38;;;;;;;5.25;2.17;;;;;;;;;;5036724;28;20091;-83
2022/04/09 13:22:04;;;;;;;4.45;2.17;;;;;;;;;;5036010;28;20021;-80
2022/04/09 13:24:30;;;;;;;4.07;2.10;;;;;;;;;;5036532;28;20440;-81
2022/04/09 13:26:56;;;;;;;7.13;2.90;;;;;;;;;;5040976;28;20021;-82
2022/04/09 13:29:22;;;;;;;6.65;2.13;;;;;;;;;;5035031;28;20034;-81
2022/04/09 13:31:48;;;;;;;3.95;1.85;;;;;;;;;;5037263;28;20060;-78
2022/04/09 13:34:17;;;;;;;4.90;2.00;;;;;;;;;;5038416;28;20034;-81
2022/04/09 13:36:43;;;;;;;4.65;2.17;;;;;;;;;;5033938;28;20022;-81
2022/04/09 13:39:09;;;;;;;4.88;2.10;;;;;;;;;;5015583;28;20060;-80
2022/04/09 13:41:35;;;;;;;4.78;2.03;;;;;;;;;;5018723;28;20060;-81
2022/04/09 13:44:01;;;;;;;4.28;2.30;;;;;;;;;;5046469;28;20033;-81
2022/04/09 13:46:27;;;;;;;4.03;1.98;;;;;;;;;;5036027;28;20033;-81
2022/04/09 13:48:53;;;;;;;5.07;2.10;;;;;;;;;;5036787;28;20040;-82
2022/04/09 13:51:19;;;;;;;3.67;1.95;;;;;;;;;;5035721;28;20018;-82
2022/04/09 13:53:45;;;;;;;4.32;1.80;;;;;;;;;;5049434;28;20031;-80
2022/04/09 13:56:12;;;;;;;4.30;1.70;;;;;;;;;;5045396;28;20029;-81
2022/04/09 13:58:38;;;;;;;3.60;1.88;;;;;;;;;;5035872;28;20030;-81
2022/04/09 14:01:04;;;;;;;3.53;1.48;;;;;;;;;;5036720;28;20033;-81
2022/04/09 14:03:30;;;;;;;3.90;1.60;;;;;;;;;;5036606;28;20521;-81
2022/04/09 14:05:58;;;;;;;3.47;1.50;;;;;;;;;;5033623;28;20026;-80
2022/04/09 14:08:24;;;;;;;3.60;1.58;;;;;;;;;;5035681;28;20079;-82
2022/04/09 14:10:52;;;;;;;4.10;1.50;;;;;;;;;;5029600;28;20041;-80
2022/04/09 14:13:18;;;;;;;3.65;1.60;;;;;;;;;;5035990;28;20024;-80
2022/04/09 14:15:44;;;;;;;3.35;1.50;;;;;;;;;;5031455;28;20026;-80
2022/04/09 14:18:10;;;;;;;3.60;1.40;;;;;;;;;;5035511;28;20518;-83
2022/04/09 14:20:37;;;;;;;3.70;1.48;;;;;;;;;;5029201;28;20025;-82
2022/04/09 14:23:03;;;;;;;5.43;1.40;;;;;;;;;;5036269;28;20488;-83
2022/04/09 14:25:29;;;;;;;4.40;1.55;;;;;;;;;;5035372;28;20057;-80
2022/04/09 14:27:57;;;;;;;3.45;1.30;;;;;;;;;;5034760;28;20102;-82
2022/04/09 14:30:23;;;;;;;3.90;1.50;;;;;;;;;;5035844;28;20018;-83
2022/04/09 14:32:49;;;;;;;3.55;1.60;;;;;;;;;;5028646;28;20064;-81
2022/04/09 14:35:19;;;;;;;3.63;1.73;;;;;;;;;;5035535;28;20072;-80
2022/04/09 14:37:46;;;;;;;3.55;1.48;;;;;;;;;;5039356;28;20021;-81
2022/04/09 14:40:13;;;;;;;3.72;1.58;;;;;;;;;;5029782;28;20026;-82
2022/04/09 14:42:39;;;;;;;4.82;1.90;;;;;;;;;;5028918;28;20039;-80
2022/04/09 14:45:05;;;;;;;3.60;1.80;;;;;;;;;;5018756;28;20109;-82